createdAt,value
2023-03-29T00:02:02.404Z,4.50
2023-03-29T00:04:29.409Z,4.50
2023-03-29T00:06:56.331Z,4.40
2023-03-29T00:09:26.342Z,4.40
2023-03-29T00:11:52.992Z,4.40
2023-03-29T00:14:19.871Z,4.40
2023-03-29T00:16:47.027Z,4.40
2023-03-29T00:19:13.726Z,4.40
2023-03-29T00:21:40.772Z,4.30
2023-03-29T00:24:07.558Z,4.30
2023-03-29T00:26:34.387Z,4.30
2023-03-29T00:29:01.101Z,4.30
2023-03-29T00:31:28.451Z,4.40
2023-03-29T00:33:55.249Z,4.40
2023-03-29T00:36:23.172Z,4.40
2023-03-29T00:38:49.906Z,4.30
2023-03-29T00:41:16.651Z,4.30
2023-03-29T00:43:56.146Z,4.30
2023-03-29T00:46:24.043Z,4.30
2023-03-29T00:48:53.733Z,4.20
2023-03-29T00:51:23.246Z,4.20
2023-03-29T00:53:55.985Z,4.10
2023-03-29T00:56:44.010Z,4.10
2023-03-29T00:59:15.475Z,4.10
2023-03-29T01:01:48.202Z,4.10
2023-03-29T01:04:24.309Z,4.10
2023-03-29T01:07:13.365Z,4.10
2023-03-29T01:09:43.414Z,4.10
2023-03-29T01:12:34.919Z,4.10
2023-03-29T01:15:27.661Z,4.00
2023-03-29T01:17:57.885Z,4.00
2023-03-29T01:21:04.747Z,4.10
2023-03-29T01:23:52.902Z,4.00
2023-03-29T01:26:34.915Z,4.00
2023-03-29T01:29:13.192Z,4.00
2023-03-29T01:31:44.730Z,4.00
2023-03-29T01:34:38.356Z,3.90
2023-03-29T01:37:32.259Z,3.80
2023-03-29T01:39:58.924Z,3.90
2023-03-29T01:42:51.436Z,3.90
2023-03-29T01:45:18.020Z,3.90
2023-03-29T01:47:47.276Z,3.80
2023-03-29T01:50:20.118Z,3.60
2023-03-29T01:52:59.671Z,3.70
2023-03-29T01:55:32.445Z,3.60
2023-03-29T01:58:01.880Z,3.60
2023-03-29T02:00:30.281Z,3.60
2023-03-29T02:03:04.391Z,3.60
2023-03-29T02:05:31.829Z,3.60
2023-03-29T02:08:01.164Z,3.60
2023-03-29T02:10:28.195Z,3.60
2023-03-29T02:12:55.860Z,3.60
2023-03-29T02:15:23.452Z,3.50
2023-03-29T02:17:50.901Z,3.60
2023-03-29T02:20:31.983Z,3.50
2023-03-29T02:23:08.160Z,3.60
2023-03-29T02:25:37.182Z,3.60
2023-03-29T02:28:05.962Z,3.60
2023-03-29T02:30:51.152Z,3.60
2023-03-29T02:33:21.704Z,3.60
2023-03-29T02:35:58.939Z,3.60
2023-03-29T02:38:27.661Z,3.60
2023-03-29T02:40:56.097Z,3.60
2023-03-29T02:43:26.132Z,3.60
2023-03-29T02:45:53.560Z,3.60
2023-03-29T02:48:23.095Z,3.60
2023-03-29T02:50:53.356Z,3.60
2023-03-29T02:53:26.333Z,3.60
2023-03-29T02:55:53.785Z,3.60
2023-03-29T02:58:28.547Z,3.60
2023-03-29T03:00:58.262Z,3.60
2023-03-29T03:03:25.353Z,3.60
2023-03-29T03:05:52.846Z,3.60
2023-03-29T03:08:20.429Z,3.70
2023-03-29T03:10:48.148Z,3.60
2023-03-29T03:13:15.000Z,3.70
2023-03-29T03:15:42.903Z,3.70
2023-03-29T03:18:10.743Z,3.70
2023-03-29T03:20:37.480Z,3.70
2023-03-29T03:23:04.346Z,3.70
2023-03-29T03:25:32.259Z,3.70
2023-03-29T03:27:58.944Z,3.80
2023-03-29T03:30:25.753Z,3.70
2023-03-29T03:32:58.433Z,3.70
2023-03-29T03:35:46.351Z,3.70
2023-03-29T03:38:15.164Z,3.80
2023-03-29T03:40:43.426Z,3.70
2023-03-29T03:43:10.420Z,3.70
2023-03-29T03:45:37.156Z,3.70
2023-03-29T03:48:11.604Z,3.70
2023-03-29T03:50:52.679Z,3.70
2023-03-29T03:53:19.904Z,3.70
2023-03-29T03:56:16.160Z,3.70
2023-03-29T03:59:01.367Z,3.70
2023-03-29T04:01:33.793Z,3.70
2023-03-29T04:04:12.929Z,3.70
2023-03-29T04:06:44.124Z,3.70
2023-03-29T04:09:37.544Z,3.70
2023-03-29T04:12:15.654Z,3.70
2023-03-29T04:14:42.915Z,3.80
2023-03-29T04:17:15.918Z,3.70
2023-03-29T04:19:58.443Z,3.80
2023-03-29T04:22:28.017Z,3.80
2023-03-29T04:24:55.107Z,3.70
2023-03-29T04:27:56.801Z,3.80
2023-03-29T04:30:41.451Z,3.80
2023-03-29T04:33:13.646Z,3.80
2023-03-29T04:35:44.061Z,3.80
2023-03-29T04:38:14.518Z,3.80
2023-03-29T04:40:44.402Z,3.80
2023-03-29T04:43:23.638Z,3.80
2023-03-29T04:46:07.704Z,3.90
2023-03-29T04:48:52.842Z,4.00
2023-03-29T04:51:28.631Z,4.00
2023-03-29T04:53:55.598Z,4.00
2023-03-29T04:56:23.141Z,4.00
2023-03-29T04:59:28.532Z,4.10
2023-03-29T05:01:55.413Z,4.10
2023-03-29T05:04:22.635Z,4.10
2023-03-29T05:07:04.452Z,4.10
2023-03-29T05:09:32.558Z,4.20
2023-03-29T05:12:02.212Z,4.20
2023-03-29T05:14:34.906Z,4.30
2023-03-29T05:17:01.894Z,4.30
2023-03-29T05:19:28.913Z,4.30
2023-03-29T05:21:55.812Z,4.30
2023-03-29T05:24:23.784Z,4.20
2023-03-29T05:26:58.870Z,4.30
2023-03-29T05:29:27.941Z,4.30
2023-03-29T05:32:06.997Z,4.30
2023-03-29T05:34:33.814Z,4.30
2023-03-29T05:37:02.136Z,4.30
2023-03-29T05:39:37.777Z,4.30
2023-03-29T05:42:05.771Z,4.30
2023-03-29T05:44:41.983Z,4.40
2023-03-29T05:47:16.323Z,4.40
2023-03-29T05:49:42.970Z,4.40
2023-03-29T05:52:14.374Z,4.40
2023-03-29T05:54:42.045Z,4.40
2023-03-29T05:57:09.653Z,4.50
2023-03-29T05:59:36.873Z,4.50
2023-03-29T06:02:04.778Z,4.60
2023-03-29T06:04:33.345Z,4.70
2023-03-29T06:07:23.410Z,4.70
2023-03-29T06:10:16.304Z,4.70
2023-03-29T06:12:47.609Z,4.70
2023-03-29T06:15:15.778Z,4.70
2023-03-29T06:17:48.655Z,4.70
2023-03-29T06:20:16.925Z,4.80
2023-03-29T06:22:48.264Z,4.80
2023-03-29T06:25:15.426Z,4.80
2023-03-29T06:27:46.598Z,4.80
2023-03-29T06:30:15.933Z,4.90
2023-03-29T06:32:46.611Z,4.90
2023-03-29T06:35:26.952Z,4.90
2023-03-29T06:38:03.120Z,5.00
2023-03-29T06:40:37.794Z,5.00
2023-03-29T06:43:05.005Z,4.90
2023-03-29T06:45:47.375Z,5.00
2023-03-29T06:48:22.904Z,5.00
2023-03-29T06:50:49.665Z,5.00
2023-03-29T06:53:17.205Z,5.10
2023-03-29T06:55:52.387Z,5.20
2023-03-29T06:58:46.821Z,5.40
2023-03-29T07:01:37.631Z,5.50
2023-03-29T07:04:14.840Z,5.70
2023-03-29T07:07:07.587Z,5.80
2023-03-29T07:09:35.786Z,5.90
2023-03-29T07:12:12.296Z,6.00
2023-03-29T07:14:39.749Z,6.20
2023-03-29T07:17:06.368Z,6.30
2023-03-29T07:19:35.414Z,6.30
2023-03-29T07:22:09.773Z,6.30
2023-03-29T07:24:46.795Z,6.20
2023-03-29T07:27:14.521Z,6.10
2023-03-29T07:29:41.135Z,6.10
2023-03-29T07:32:08.441Z,6.10
2023-03-29T07:34:55.082Z,6.10
2023-03-29T07:37:27.036Z,6.10
2023-03-29T07:39:56.571Z,6.20
2023-03-29T07:42:46.738Z,6.20
2023-03-29T07:45:17.705Z,6.10
2023-03-29T07:47:58.739Z,6.00
2023-03-29T07:50:28.803Z,6.00
2023-03-29T07:53:00.669Z,6.00
2023-03-29T07:55:28.904Z,5.90
2023-03-29T07:58:02.177Z,5.80
2023-03-29T08:00:29.052Z,5.80
2023-03-29T08:03:14.734Z,5.80
2023-03-29T08:05:43.118Z,5.90
2023-03-29T08:08:12.227Z,6.00
2023-03-29T08:10:53.427Z,6.00
2023-03-29T08:13:38.805Z,6.00
2023-03-29T08:16:26.241Z,6.00
2023-03-29T08:19:01.146Z,6.10
2023-03-29T08:21:41.727Z,6.10
2023-03-29T08:24:09.173Z,6.20
2023-03-29T08:26:45.799Z,6.20
2023-03-29T08:29:13.788Z,6.20
2023-03-29T08:31:40.577Z,6.20
2023-03-29T08:34:07.244Z,6.20
2023-03-29T08:36:50.577Z,6.20
2023-03-29T08:39:25.534Z,6.30
2023-03-29T08:42:37.496Z,6.40
2023-03-29T08:45:29.481Z,6.50
2023-03-29T08:48:13.683Z,6.50
2023-03-29T08:50:49.279Z,6.70
2023-03-29T08:53:27.595Z,6.80
2023-03-29T08:56:24.959Z,6.80
2023-03-29T08:59:25.803Z,6.90
2023-03-29T09:01:56.576Z,7.00
2023-03-29T09:04:39.786Z,7.00
2023-03-29T09:07:32.637Z,7.10
2023-03-29T09:10:00.263Z,7.20
2023-03-29T09:13:03.848Z,7.30
2023-03-29T09:15:41.820Z,7.40
2023-03-29T09:18:35.849Z,7.50
2023-03-29T09:21:46.682Z,7.60
2023-03-29T09:24:38.506Z,7.60
2023-03-29T09:27:20.936Z,7.70
2023-03-29T09:30:04.600Z,7.80
2023-03-29T09:33:02.767Z,7.90
2023-03-29T09:36:04.139Z,8.00
2023-03-29T09:38:42.616Z,8.00
2023-03-29T09:41:30.354Z,8.10
2023-03-29T09:44:02.868Z,8.20
2023-03-29T09:46:41.697Z,8.30
2023-03-29T09:49:17.578Z,8.30
2023-03-29T09:51:48.140Z,8.50
2023-03-29T09:54:15.639Z,8.60
2023-03-29T09:57:00.924Z,8.60
2023-03-29T09:59:27.713Z,8.70
2023-03-29T10:02:09.356Z,8.70
2023-03-29T10:04:36.713Z,8.80
2023-03-29T10:07:06.003Z,8.80
2023-03-29T10:09:34.124Z,8.90
2023-03-29T10:12:15.876Z,8.90
2023-03-29T10:14:47.878Z,8.80
2023-03-29T10:17:24.323Z,8.90
2023-03-29T10:20:04.538Z,8.90
2023-03-29T10:22:41.069Z,8.90
2023-03-29T10:25:16.993Z,8.90
2023-03-29T10:27:46.462Z,9.00
2023-03-29T10:30:22.451Z,9.10
2023-03-29T10:32:59.604Z,9.10
2023-03-29T10:35:41.456Z,9.00
2023-03-29T10:38:14.796Z,9.10
2023-03-29T10:40:50.432Z,9.10
2023-03-29T10:43:17.010Z,9.00
2023-03-29T10:45:44.051Z,9.00
2023-03-29T10:48:15.737Z,8.90
2023-03-29T10:50:42.770Z,8.90
2023-03-29T10:53:26.699Z,9.10
2023-03-29T10:56:00.429Z,9.10
2023-03-29T10:58:39.301Z,9.20
2023-03-29T11:01:15.004Z,9.20
2023-03-29T11:03:59.943Z,9.30
2023-03-29T11:06:50.823Z,9.40
2023-03-29T11:09:37.321Z,9.40
2023-03-29T11:12:17.910Z,9.40
2023-03-29T11:15:14.566Z,9.40
2023-03-29T11:17:57.839Z,9.30
2023-03-29T11:20:48.473Z,9.50
2023-03-29T11:23:30.279Z,9.50
2023-03-29T11:26:08.237Z,9.60
2023-03-29T11:28:37.973Z,9.60
2023-03-29T11:31:07.806Z,9.50
2023-03-29T11:34:11.416Z,9.40
2023-03-29T11:37:15.577Z,9.20
2023-03-29T11:40:09.156Z,9.10
2023-03-29T11:42:40.991Z,9.00
2023-03-29T11:45:16.341Z,9.10
2023-03-29T11:47:46.031Z,9.10
2023-03-29T11:50:42.645Z,9.20
2023-03-29T11:53:19.627Z,9.30
2023-03-29T11:55:47.152Z,9.30
2023-03-29T11:58:42.361Z,9.30
2023-03-29T12:01:28.028Z,9.20
2023-03-29T12:03:59.117Z,9.20
2023-03-29T12:06:44.036Z,9.20
2023-03-29T12:09:29.461Z,9.30
2023-03-29T12:12:09.853Z,9.20
2023-03-29T12:15:01.231Z,9.30
2023-03-29T12:17:33.986Z,9.40
2023-03-29T12:20:13.212Z,9.60
2023-03-29T12:22:48.930Z,9.80
2023-03-29T12:25:22.779Z,9.80
2023-03-29T12:27:56.729Z,10.00
2023-03-29T12:30:42.044Z,10.20
2023-03-29T12:33:15.773Z,10.20
2023-03-29T12:36:20.919Z,10.40
2023-03-29T12:39:19.048Z,10.60
2023-03-29T12:42:17.655Z,10.50
2023-03-29T12:45:03.468Z,10.40
2023-03-29T12:47:42.311Z,10.40
2023-03-29T12:50:24.558Z,10.50
2023-03-29T12:52:51.548Z,10.50
2023-03-29T12:55:31.187Z,10.50
2023-03-29T12:58:23.125Z,10.50
2023-03-29T13:01:05.099Z,10.60
2023-03-29T13:03:51.939Z,10.60
2023-03-29T13:06:35.169Z,10.70
2023-03-29T13:09:05.205Z,10.80
2023-03-29T13:11:42.494Z,10.80
2023-03-29T13:14:16.878Z,11.00
2023-03-29T13:16:43.579Z,11.00
2023-03-29T13:19:27.289Z,11.10
2023-03-29T13:22:09.761Z,11.30
2023-03-29T13:24:55.397Z,11.50
2023-03-29T13:27:29.171Z,11.60
2023-03-29T13:30:22.943Z,11.70
2023-03-29T13:32:57.217Z,11.80
2023-03-29T13:35:46.805Z,12.00
2023-03-29T13:38:23.522Z,12.10
2023-03-29T13:40:53.056Z,12.20
2023-03-29T13:43:19.658Z,12.30
2023-03-29T13:46:04.502Z,12.50
2023-03-29T13:48:37.531Z,12.50
2023-03-29T13:51:18.307Z,12.70
2023-03-29T13:53:51.541Z,12.80
2023-03-29T13:56:51.318Z,12.90
2023-03-29T13:59:57.420Z,13.20
2023-03-29T14:02:57.420Z,13.30
2023-03-29T14:05:37.277Z,13.20
2023-03-29T14:08:26.113Z,13.30
2023-03-29T14:10:53.724Z,13.30
2023-03-29T14:13:23.975Z,13.10
2023-03-29T14:16:04.258Z,13.00
2023-03-29T14:18:40.934Z,12.90
2023-03-29T14:21:10.964Z,12.90
2023-03-29T14:23:38.305Z,12.90
2023-03-29T14:26:14.090Z,13.00
2023-03-29T14:29:10.512Z,13.10
2023-03-29T14:31:39.862Z,13.10
2023-03-29T14:34:15.651Z,13.00
2023-03-29T14:36:45.330Z,13.10
2023-03-29T14:39:15.103Z,13.20
2023-03-29T14:42:03.127Z,13.40
2023-03-29T14:44:32.987Z,13.30
2023-03-29T14:47:01.447Z,13.30
2023-03-29T14:49:28.467Z,13.40
2023-03-29T14:51:55.675Z,13.40
2023-03-29T14:54:28.525Z,13.50
2023-03-29T14:56:55.825Z,13.60
2023-03-29T14:59:35.408Z,13.70
2023-03-29T15:02:02.182Z,13.90
2023-03-29T15:04:35.978Z,13.90
2023-03-29T15:07:04.744Z,14.00
2023-03-29T15:09:35.102Z,13.70
2023-03-29T15:12:03.455Z,13.50
2023-03-29T15:14:37.917Z,13.40
2023-03-29T15:17:16.851Z,13.30
2023-03-29T15:19:43.520Z,13.30
2023-03-29T15:22:11.376Z,13.30
2023-03-29T15:24:46.979Z,13.20
2023-03-29T15:27:16.893Z,13.10
2023-03-29T15:29:46.732Z,13.00
2023-03-29T15:32:24.869Z,12.90
2023-03-29T15:34:59.408Z,12.90
2023-03-29T15:37:26.487Z,12.90
2023-03-29T15:39:53.661Z,12.80
2023-03-29T15:42:20.888Z,12.80
2023-03-29T15:44:47.476Z,12.80
2023-03-29T15:47:14.351Z,12.90
2023-03-29T15:49:41.026Z,12.80
2023-03-29T15:52:07.626Z,12.70
2023-03-29T15:54:36.917Z,12.70
2023-03-29T15:57:06.363Z,12.70
2023-03-29T15:59:34.631Z,12.60
2023-03-29T16:02:01.678Z,12.50
2023-03-29T16:04:28.749Z,12.50
2023-03-29T16:06:55.714Z,12.50
2023-03-29T16:09:22.734Z,12.40
2023-03-29T16:11:50.134Z,12.40
2023-03-29T16:14:26.870Z,12.40
2023-03-29T16:16:55.349Z,12.50
2023-03-29T16:19:23.035Z,12.40
2023-03-29T16:21:50.096Z,12.40
2023-03-29T16:24:23.917Z,12.40
2023-03-29T16:26:54.633Z,12.40
2023-03-29T16:29:23.441Z,12.40
2023-03-29T16:31:50.950Z,12.40
2023-03-29T16:34:19.010Z,12.50
2023-03-29T16:36:49.732Z,12.50
2023-03-29T16:39:18.033Z,12.40
2023-03-29T16:41:47.871Z,12.40
2023-03-29T16:44:18.611Z,12.40
2023-03-29T16:46:46.722Z,12.40
2023-03-29T16:49:17.877Z,12.40
2023-03-29T16:51:46.579Z,12.40
2023-03-29T16:54:14.149Z,12.40
2023-03-29T16:56:41.082Z,12.30
2023-03-29T16:59:09.013Z,12.30
2023-03-29T17:01:36.386Z,12.30
2023-03-29T17:04:03.595Z,12.30
2023-03-29T17:06:32.092Z,12.20
2023-03-29T17:08:59.059Z,12.20
2023-03-29T17:11:26.116Z,12.20
2023-03-29T17:13:52.991Z,12.20
2023-03-29T17:16:19.856Z,12.30
2023-03-29T17:18:46.523Z,12.30
2023-03-29T17:21:13.296Z,12.40
2023-03-29T17:23:40.330Z,12.30
2023-03-29T17:26:07.516Z,12.30
2023-03-29T17:28:34.851Z,12.20
2023-03-29T17:31:07.222Z,12.20
2023-03-29T17:33:34.345Z,12.20
2023-03-29T17:36:01.366Z,12.20
2023-03-29T17:38:30.236Z,12.20
2023-03-29T17:40:57.113Z,12.20
2023-03-29T17:43:23.802Z,12.10
2023-03-29T17:45:53.130Z,12.10
2023-03-29T17:48:20.103Z,12.00
2023-03-29T17:50:47.454Z,12.00
2023-03-29T17:53:14.108Z,12.00
2023-03-29T17:55:44.276Z,12.00
2023-03-29T17:58:11.371Z,11.90
2023-03-29T18:00:38.079Z,11.80
2023-03-29T18:03:04.818Z,11.70
2023-03-29T18:05:31.618Z,11.70
2023-03-29T18:07:58.273Z,11.60
2023-03-29T18:10:24.966Z,11.60
2023-03-29T18:12:52.910Z,11.50
2023-03-29T18:15:19.819Z,11.60
2023-03-29T18:17:47.036Z,11.50
2023-03-29T18:20:13.797Z,11.50
2023-03-29T18:22:43.956Z,11.40
2023-03-29T18:25:10.944Z,11.30
2023-03-29T18:27:39.187Z,11.30
2023-03-29T18:30:08.371Z,11.30
2023-03-29T18:32:35.206Z,11.30
2023-03-29T18:35:02.750Z,11.30
2023-03-29T18:37:29.420Z,11.30
2023-03-29T18:39:56.798Z,11.20
2023-03-29T18:42:23.961Z,11.20
2023-03-29T18:44:51.158Z,11.20
2023-03-29T18:47:18.318Z,11.20
2023-03-29T18:49:45.236Z,11.20
2023-03-29T18:52:12.080Z,11.10
2023-03-29T18:54:38.785Z,11.10
2023-03-29T18:57:05.760Z,11.10
2023-03-29T18:59:32.514Z,11.20
2023-03-29T19:02:00.945Z,11.20
2023-03-29T19:04:28.777Z,11.20
2023-03-29T19:06:56.031Z,11.20
2023-03-29T19:09:23.288Z,11.10
2023-03-29T19:11:50.234Z,11.20
2023-03-29T19:14:23.177Z,11.10
2023-03-29T19:16:51.964Z,11.10
2023-03-29T19:19:19.336Z,11.20
2023-03-29T19:21:47.276Z,11.30
2023-03-29T19:24:14.611Z,11.30
2023-03-29T19:26:43.565Z,11.30
2023-03-29T19:29:10.578Z,11.30
2023-03-29T19:31:37.992Z,11.30
2023-03-29T19:34:06.635Z,11.30
2023-03-29T19:36:33.246Z,11.30
2023-03-29T19:39:00.633Z,11.40
2023-03-29T19:41:28.145Z,11.40
2023-03-29T19:43:55.299Z,11.30
2023-03-29T19:46:22.259Z,11.40
2023-03-29T19:48:49.173Z,11.30
2023-03-29T19:51:16.717Z,11.30
2023-03-29T19:53:43.820Z,11.40
2023-03-29T19:56:10.837Z,11.30
2023-03-29T19:58:37.795Z,11.40
2023-03-29T20:01:04.631Z,11.40
2023-03-29T20:03:34.041Z,11.40
2023-03-29T20:06:01.551Z,11.40
2023-03-29T20:08:28.572Z,11.40
2023-03-29T20:10:59.592Z,11.40
2023-03-29T20:13:37.723Z,11.40
2023-03-29T20:16:07.915Z,11.40
2023-03-29T20:18:34.689Z,11.40
2023-03-29T20:21:01.793Z,11.40
2023-03-29T20:23:28.839Z,11.30
2023-03-29T20:25:58.333Z,11.40
2023-03-29T20:28:25.313Z,11.40
2023-03-29T20:30:52.672Z,11.30
2023-03-29T20:33:20.803Z,11.30
2023-03-29T20:35:49.077Z,11.30
2023-03-29T20:38:16.123Z,11.30
2023-03-29T20:40:42.777Z,11.20
2023-03-29T20:43:13.190Z,11.20
2023-03-29T20:45:52.646Z,11.20
2023-03-29T20:48:23.034Z,11.20
2023-03-29T20:50:50.747Z,11.20
2023-03-29T20:53:18.167Z,11.20
2023-03-29T20:55:45.179Z,11.10
2023-03-29T20:58:11.823Z,11.20
2023-03-29T21:00:40.208Z,11.20
2023-03-29T21:03:08.318Z,11.20
2023-03-29T21:05:35.448Z,11.20
2023-03-29T21:08:03.557Z,11.20
2023-03-29T21:10:30.716Z,11.20
2023-03-29T21:13:02.111Z,11.20
2023-03-29T21:15:30.464Z,11.30
2023-03-29T21:17:57.945Z,11.40
2023-03-29T21:20:25.197Z,11.30
2023-03-29T21:22:51.952Z,11.30
2023-03-29T21:25:18.864Z,11.30
2023-03-29T21:27:45.794Z,11.30
2023-03-29T21:30:12.922Z,11.30
2023-03-29T21:32:39.834Z,11.30
2023-03-29T21:35:07.074Z,11.30
2023-03-29T21:37:33.814Z,11.30
2023-03-29T21:40:00.555Z,11.30
2023-03-29T21:42:27.225Z,11.30
2023-03-29T21:44:53.816Z,11.30
2023-03-29T21:47:20.990Z,11.30
2023-03-29T21:49:47.607Z,11.30
2023-03-29T21:52:14.282Z,11.20
2023-03-29T21:54:41.137Z,11.20
2023-03-29T21:57:08.156Z,11.20
2023-03-29T21:59:35.233Z,11.20
2023-03-29T22:02:01.961Z,11.00
2023-03-29T22:04:36.640Z,11.00
2023-03-29T22:07:04.894Z,10.90
2023-03-29T22:09:34.726Z,11.00
2023-03-29T22:12:01.750Z,10.90
2023-03-29T22:14:30.023Z,10.80
2023-03-29T22:16:57.241Z,10.80
2023-03-29T22:19:23.919Z,10.80
2023-03-29T22:21:51.225Z,10.70
2023-03-29T22:24:17.886Z,10.60
2023-03-29T22:26:48.004Z,10.60
2023-03-29T22:29:14.607Z,10.60
2023-03-29T22:31:41.444Z,10.50
2023-03-29T22:34:08.242Z,10.60
2023-03-29T22:36:36.047Z,10.60
2023-03-29T22:39:03.321Z,10.50
2023-03-29T22:41:29.986Z,10.50
2023-03-29T22:43:58.723Z,10.50
2023-03-29T22:46:26.126Z,10.50
2023-03-29T22:48:53.432Z,10.50
2023-03-29T22:51:20.676Z,10.40
2023-03-29T22:53:47.825Z,10.40
2023-03-29T22:56:15.820Z,10.40
2023-03-29T22:58:43.022Z,10.40
2023-03-29T23:01:10.609Z,10.40
2023-03-29T23:03:37.283Z,10.40
2023-03-29T23:06:05.242Z,10.40
2023-03-29T23:08:32.955Z,10.30
2023-03-29T23:11:00.402Z,10.30
2023-03-29T23:13:29.155Z,10.30
2023-03-29T23:16:01.399Z,10.30
2023-03-29T23:18:30.036Z,10.20
2023-03-29T23:20:58.853Z,10.10
2023-03-29T23:23:26.725Z,10.10
2023-03-29T23:25:55.290Z,10.10
2023-03-29T23:28:24.810Z,10.10
2023-03-29T23:30:55.394Z,10.10
2023-03-29T23:33:23.173Z,10.20
2023-03-29T23:35:50.248Z,10.10
2023-03-29T23:38:16.982Z,10.10
2023-03-29T23:40:43.961Z,9.90
2023-03-29T23:43:10.972Z,9.80
2023-03-29T23:45:37.590Z,9.90
2023-03-29T23:48:04.241Z,9.90
2023-03-29T23:50:30.880Z,10.00
2023-03-29T23:52:58.160Z,10.00
2023-03-29T23:55:24.931Z,10.00
2023-03-29T23:57:51.628Z,10.10
